createdAt,value
2022-12-01T00:01:15.438Z,5.23
2022-12-01T00:03:42.215Z,5.23
2022-12-01T00:06:15.919Z,5.18
2022-12-01T00:09:06.770Z,5.17
2022-12-01T00:11:36.022Z,5.24
2022-12-01T00:14:03.856Z,5.19
2022-12-01T00:16:30.801Z,5.17
2022-12-01T00:18:57.489Z,5.19
2022-12-01T00:21:25.767Z,5.16
2022-12-01T00:23:55.626Z,5.10
2022-12-01T00:26:23.855Z,5.08
2022-12-01T00:28:56.037Z,5.02
2022-12-01T00:31:23.325Z,5.00
2022-12-01T00:33:50.458Z,5.00
2022-12-01T00:36:17.186Z,4.99
2022-12-01T00:38:43.880Z,4.96
2022-12-01T00:41:10.614Z,4.98
2022-12-01T00:43:37.542Z,4.99
2022-12-01T00:46:04.386Z,4.93
2022-12-01T00:48:31.185Z,4.96
2022-12-01T00:50:57.867Z,4.89
2022-12-01T00:53:24.706Z,4.83
2022-12-01T00:55:54.041Z,4.76
2022-12-01T00:58:21.622Z,4.76
2022-12-01T01:00:48.511Z,4.80
2022-12-01T01:03:15.670Z,4.75
2022-12-01T01:05:43.827Z,4.77
2022-12-01T01:08:12.700Z,4.76
2022-12-01T01:10:44.718Z,4.66
2022-12-01T01:13:12.962Z,4.71
2022-12-01T01:15:39.863Z,4.64
2022-12-01T01:18:07.185Z,4.53
2022-12-01T01:20:33.844Z,4.19
2022-12-01T01:23:00.618Z,4.19
2022-12-01T01:25:27.539Z,4.29
2022-12-01T01:27:54.245Z,4.23
2022-12-01T01:30:21.013Z,4.36
2022-12-01T01:32:47.896Z,4.28
2022-12-01T01:35:14.493Z,4.29
2022-12-01T01:37:41.166Z,4.17
2022-12-01T01:40:08.437Z,4.15
2022-12-01T01:42:35.188Z,4.23
2022-12-01T01:45:02.074Z,4.24
2022-12-01T01:47:40.673Z,4.25
2022-12-01T01:50:11.545Z,4.24
2022-12-01T01:52:53.705Z,4.25
2022-12-01T01:55:20.561Z,4.22
2022-12-01T01:57:47.472Z,4.09
2022-12-01T02:00:18.239Z,4.29
2022-12-01T02:02:47.298Z,4.22
2022-12-01T02:05:35.757Z,4.17
2022-12-01T02:08:04.388Z,4.17
2022-12-01T02:10:40.362Z,4.06
2022-12-01T02:13:06.975Z,4.10
2022-12-01T02:15:59.925Z,4.21
2022-12-01T02:18:49.823Z,4.10
2022-12-01T02:21:31.582Z,4.12
2022-12-01T02:24:00.891Z,4.06
2022-12-01T02:26:53.578Z,4.02
2022-12-01T02:29:38.371Z,4.03
2022-12-01T02:32:34.629Z,4.10
2022-12-01T02:35:11.139Z,4.00
2022-12-01T02:37:52.714Z,4.04
2022-12-01T02:40:28.410Z,4.03
2022-12-01T02:42:59.780Z,4.13
2022-12-01T02:45:31.647Z,4.12
2022-12-01T02:48:02.068Z,4.03
2022-12-01T02:50:31.140Z,4.11
2022-12-01T02:52:59.401Z,4.04
2022-12-01T02:55:26.105Z,3.96
2022-12-01T02:57:52.640Z,4.01
2022-12-01T03:00:19.628Z,3.96
2022-12-01T03:03:27.785Z,3.91
2022-12-01T03:06:24.115Z,3.91
2022-12-01T03:09:17.402Z,3.85
2022-12-01T03:11:56.717Z,3.84
2022-12-01T03:14:39.956Z,3.86
2022-12-01T03:17:19.224Z,3.85
2022-12-01T03:19:54.747Z,3.81
2022-12-01T03:22:36.004Z,3.84
2022-12-01T03:25:04.322Z,3.90
2022-12-01T03:27:35.443Z,3.87
2022-12-01T03:30:04.528Z,3.77
2022-12-01T03:32:38.096Z,3.67
2022-12-01T03:35:10.843Z,3.73
2022-12-01T03:37:42.548Z,3.73
2022-12-01T03:40:14.475Z,3.72
2022-12-01T03:42:46.575Z,3.74
2022-12-01T03:45:24.369Z,3.71
2022-12-01T03:47:51.756Z,3.67
2022-12-01T03:50:19.096Z,3.61
2022-12-01T03:53:11.588Z,3.56
2022-12-01T03:55:44.274Z,3.55
2022-12-01T03:58:16.673Z,3.48
2022-12-01T04:00:46.373Z,3.41
2022-12-01T04:03:23.024Z,3.42
2022-12-01T04:05:49.732Z,3.51
2022-12-01T04:08:16.419Z,3.45
2022-12-01T04:10:43.695Z,3.44
2022-12-01T04:13:22.586Z,3.42
2022-12-01T04:15:51.440Z,3.38
2022-12-01T04:18:18.623Z,3.35
2022-12-01T04:20:46.967Z,3.46
2022-12-01T04:23:36.426Z,3.40
2022-12-01T04:26:04.909Z,3.39
2022-12-01T04:28:31.556Z,3.45
2022-12-01T04:30:58.381Z,3.41
2022-12-01T04:33:25.015Z,3.48
2022-12-01T04:35:59.479Z,3.44
2022-12-01T04:38:30.636Z,3.48
2022-12-01T04:40:58.012Z,3.48
2022-12-01T04:43:24.782Z,3.37
2022-12-01T04:45:51.540Z,3.37
2022-12-01T04:48:18.094Z,3.37
2022-12-01T04:50:44.708Z,3.41
2022-12-01T04:53:11.285Z,3.40
2022-12-01T04:55:39.255Z,3.33
2022-12-01T04:58:06.393Z,3.33
2022-12-01T05:00:33.861Z,3.27
2022-12-01T05:03:00.568Z,3.20
2022-12-01T05:05:27.580Z,3.18
2022-12-01T05:07:54.241Z,3.24
2022-12-01T05:10:21.566Z,3.30
2022-12-01T05:12:48.353Z,3.23
2022-12-01T05:15:15.499Z,3.24
2022-12-01T05:17:42.082Z,3.18
2022-12-01T05:20:33.710Z,3.23
2022-12-01T05:23:09.719Z,3.22
2022-12-01T05:25:38.917Z,3.20
2022-12-01T05:28:06.563Z,3.17
2022-12-01T05:30:33.432Z,3.14
2022-12-01T05:33:00.259Z,3.08
2022-12-01T05:35:27.084Z,3.09
2022-12-01T05:37:53.746Z,3.08
2022-12-01T05:40:20.487Z,3.06
2022-12-01T05:42:47.083Z,3.10
2022-12-01T05:45:13.767Z,3.06
2022-12-01T05:47:40.421Z,3.08
2022-12-01T05:50:08.097Z,2.97
2022-12-01T05:52:35.395Z,2.99
2022-12-01T05:55:04.143Z,3.04
2022-12-01T05:57:32.073Z,3.01
2022-12-01T05:59:59.425Z,2.97
2022-12-01T06:02:26.914Z,2.98
2022-12-01T06:04:53.960Z,2.97
2022-12-01T06:07:22.251Z,2.93
2022-12-01T06:09:49.896Z,3.03
2022-12-01T06:12:16.774Z,2.99
2022-12-01T06:14:43.425Z,2.97
2022-12-01T06:17:10.216Z,2.90
2022-12-01T06:19:36.907Z,2.85
2022-12-01T06:22:03.962Z,2.88
2022-12-01T06:24:30.691Z,2.82
2022-12-01T06:26:57.297Z,2.82
2022-12-01T06:29:23.964Z,2.75
2022-12-01T06:31:50.622Z,2.81
2022-12-01T06:34:17.300Z,2.76
2022-12-01T06:36:43.875Z,2.76
2022-12-01T06:39:10.753Z,2.73
2022-12-01T06:41:38.118Z,2.83
2022-12-01T06:44:05.033Z,2.87
2022-12-01T06:46:31.796Z,2.74
2022-12-01T06:48:58.633Z,2.73
2022-12-01T06:51:25.267Z,2.75
2022-12-01T06:53:55.437Z,2.83
2022-12-01T06:56:23.370Z,2.79
2022-12-01T06:58:50.762Z,2.71
2022-12-01T07:01:18.825Z,2.68
2022-12-01T07:03:51.420Z,2.67
2022-12-01T07:06:18.495Z,2.75
2022-12-01T07:08:45.114Z,2.81
2022-12-01T07:11:14.076Z,2.79
2022-12-01T07:13:42.277Z,2.60
2022-12-01T07:16:09.713Z,2.78
2022-12-01T07:18:37.507Z,2.73
2022-12-01T07:21:10.328Z,2.76
2022-12-01T07:23:37.275Z,2.72
2022-12-01T07:26:07.067Z,2.71
2022-12-01T07:28:34.203Z,2.60
2022-12-01T07:31:07.733Z,2.75
2022-12-01T07:33:34.891Z,2.77
2022-12-01T07:36:02.051Z,2.74
2022-12-01T07:38:29.868Z,2.78
2022-12-01T07:41:06.050Z,2.77
2022-12-01T07:43:33.534Z,2.79
2022-12-01T07:46:18.752Z,2.74
2022-12-01T07:48:49.103Z,2.75
2022-12-01T07:51:19.428Z,2.77
2022-12-01T07:53:49.408Z,2.85
2022-12-01T07:56:17.387Z,2.83
2022-12-01T07:58:44.377Z,2.87
2022-12-01T08:01:20.484Z,2.86
2022-12-01T08:03:55.452Z,2.88
2022-12-01T08:06:22.967Z,2.88
2022-12-01T08:08:50.119Z,2.78
2022-12-01T08:11:20.347Z,2.86
2022-12-01T08:13:47.460Z,2.87
2022-12-01T08:16:17.030Z,2.93
2022-12-01T08:18:44.631Z,3.04
2022-12-01T08:21:13.852Z,3.13
2022-12-01T08:23:42.230Z,3.14
2022-12-01T08:26:13.050Z,3.16
2022-12-01T08:28:39.976Z,3.22
2022-12-01T08:31:12.710Z,3.31
2022-12-01T08:33:39.533Z,3.36
2022-12-01T08:36:06.451Z,3.45
2022-12-01T08:38:33.521Z,3.51
2022-12-01T08:41:05.351Z,3.58
2022-12-01T08:43:56.716Z,3.66
2022-12-01T08:46:18.840Z,3.72
2022-12-01T08:48:45.741Z,3.79
2022-12-01T08:51:15.364Z,3.83
2022-12-01T08:53:47.448Z,3.88
2022-12-01T08:56:18.363Z,3.91
2022-12-01T08:58:45.284Z,4.04
2022-12-01T09:01:15.177Z,4.10
2022-12-01T09:03:43.191Z,4.10
2022-12-01T09:06:13.421Z,4.09
2022-12-01T09:08:40.295Z,4.05
2022-12-01T09:11:13.045Z,4.10
2022-12-01T09:13:41.030Z,4.12
2022-12-01T09:16:11.508Z,4.12
2022-12-01T09:18:38.296Z,4.16
2022-12-01T09:21:12.016Z,4.20
2022-12-01T09:23:39.618Z,4.26
2022-12-01T09:26:12.124Z,4.37
2022-12-01T09:28:40.182Z,4.33
2022-12-01T09:31:09.223Z,4.41
2022-12-01T09:33:36.631Z,4.39
2022-12-01T09:36:05.136Z,4.46
2022-12-01T09:38:33.701Z,4.45
2022-12-01T09:41:22.541Z,4.46
2022-12-01T09:43:59.897Z,4.48
2022-12-01T09:46:33.448Z,4.47
2022-12-01T09:49:03.865Z,4.49
2022-12-01T09:51:34.895Z,4.56
2022-12-01T09:54:02.614Z,4.61
2022-12-01T09:56:32.387Z,4.67
2022-12-01T09:59:01.762Z,4.74
2022-12-01T10:01:37.897Z,4.75
2022-12-01T10:04:15.103Z,4.84
2022-12-01T10:07:04.119Z,4.83
2022-12-01T10:09:43.411Z,4.86
2022-12-01T10:12:22.544Z,4.87
2022-12-01T10:14:49.333Z,4.83
2022-12-01T10:17:27.683Z,4.82
2022-12-01T10:20:06.720Z,4.87
2022-12-01T10:22:36.360Z,4.86
2022-12-01T10:25:18.087Z,4.91
2022-12-01T10:27:50.837Z,4.94
2022-12-01T10:30:20.183Z,4.98
2022-12-01T10:33:00.090Z,5.01
2022-12-01T10:35:36.215Z,5.03
2022-12-01T10:38:12.314Z,5.09
2022-12-01T10:40:41.024Z,5.07
2022-12-01T10:43:10.436Z,5.11
2022-12-01T10:45:44.093Z,5.20
2022-12-01T10:48:22.368Z,5.21
2022-12-01T10:50:51.965Z,5.20
2022-12-01T10:53:33.565Z,5.24
2022-12-01T10:56:00.309Z,5.47
2022-12-01T10:58:27.043Z,5.55
2022-12-01T11:01:02.587Z,5.78
2022-12-01T11:03:31.770Z,5.88
2022-12-01T11:06:01.767Z,6.06
2022-12-01T11:08:41.811Z,5.94
2022-12-01T11:11:27.930Z,5.83
2022-12-01T11:13:56.708Z,5.97
2022-12-01T11:16:36.354Z,5.96
2022-12-01T11:19:09.071Z,6.02
2022-12-01T11:21:48.455Z,6.15
2022-12-01T11:24:33.696Z,6.19
2022-12-01T11:27:01.064Z,6.22
2022-12-01T11:29:40.167Z,6.29
2022-12-01T11:32:19.033Z,6.26
2022-12-01T11:34:52.103Z,6.28
2022-12-01T11:37:21.541Z,6.27
2022-12-01T11:39:50.025Z,6.31
2022-12-01T11:42:25.644Z,6.40
2022-12-01T11:45:21.598Z,6.60
2022-12-01T11:48:17.497Z,6.67
2022-12-01T11:50:59.526Z,6.72
2022-12-01T11:53:28.392Z,6.81
2022-12-01T11:56:17.500Z,6.85
2022-12-01T11:58:46.584Z,6.92
2022-12-01T12:01:29.858Z,6.96
2022-12-01T12:04:21.416Z,7.03
2022-12-01T12:07:07.589Z,7.06
2022-12-01T12:09:45.988Z,7.01
2022-12-01T12:12:37.461Z,7.01
2022-12-01T12:15:24.631Z,7.06
2022-12-01T12:18:18.472Z,7.17
2022-12-01T12:21:06.296Z,7.16
2022-12-01T12:24:14.120Z,7.15
2022-12-01T12:27:19.008Z,7.22
2022-12-01T12:29:58.143Z,7.23
2022-12-01T12:32:46.359Z,7.30
2022-12-01T12:35:33.055Z,7.22
2022-12-01T12:38:13.009Z,7.14
2022-12-01T12:41:05.536Z,7.09
2022-12-01T12:43:40.964Z,7.30
2022-12-01T12:46:11.892Z,7.25
2022-12-01T12:49:20.887Z,7.28
2022-12-01T12:51:54.441Z,7.26
2022-12-01T12:54:27.520Z,7.35
2022-12-01T12:57:01.099Z,7.37
2022-12-01T12:59:51.815Z,7.30
2022-12-01T13:02:27.054Z,7.29
2022-12-01T13:05:09.526Z,7.40
2022-12-01T13:07:51.261Z,7.36
2022-12-01T13:10:43.226Z,7.41
2022-12-01T13:13:37.677Z,7.55
2022-12-01T13:16:11.159Z,7.86
2022-12-01T13:18:50.169Z,7.86
2022-12-01T13:21:20.411Z,7.80
2022-12-01T13:23:49.200Z,7.85
2022-12-01T13:26:19.587Z,7.99
2022-12-01T13:28:51.736Z,8.01
2022-12-01T13:31:20.584Z,8.07
2022-12-01T13:34:01.983Z,8.12
2022-12-01T13:36:46.199Z,8.18
2022-12-01T13:39:20.614Z,8.04
2022-12-01T13:41:58.902Z,8.06
2022-12-01T13:44:50.483Z,8.04
2022-12-01T13:47:17.327Z,8.05
2022-12-01T13:49:49.560Z,8.12
2022-12-01T13:52:19.237Z,8.20
2022-12-01T13:55:07.699Z,8.17
2022-12-01T13:57:36.037Z,8.22
2022-12-01T14:00:03.411Z,8.26
2022-12-01T14:02:39.009Z,8.29
2022-12-01T14:05:24.613Z,8.36
2022-12-01T14:07:52.623Z,8.43
2022-12-01T14:10:32.384Z,8.36
2022-12-01T14:13:03.949Z,8.34
2022-12-01T14:15:42.664Z,8.30
2022-12-01T14:18:21.774Z,8.36
2022-12-01T14:20:49.509Z,8.37
2022-12-01T14:23:36.483Z,8.32
2022-12-01T14:26:14.526Z,8.35
2022-12-01T14:29:02.558Z,8.34
2022-12-01T14:31:35.348Z,8.32
2022-12-01T14:34:11.217Z,8.31
2022-12-01T14:37:02.016Z,8.27
2022-12-01T14:39:35.582Z,8.30
2022-12-01T14:42:11.556Z,8.24
2022-12-01T14:44:43.797Z,8.16
2022-12-01T14:47:10.651Z,8.09
2022-12-01T14:50:13.214Z,8.03
2022-12-01T14:53:03.926Z,7.97
2022-12-01T14:55:40.947Z,7.85
2022-12-01T14:58:26.765Z,7.68
2022-12-01T15:01:13.807Z,7.61
2022-12-01T15:03:45.129Z,7.64
2022-12-01T15:06:17.831Z,7.59
2022-12-01T15:08:58.392Z,7.42
2022-12-01T15:11:32.064Z,7.27
2022-12-01T15:13:59.093Z,7.28
2022-12-01T15:16:30.233Z,7.26
2022-12-01T15:18:56.907Z,7.16
2022-12-01T15:21:31.491Z,7.10
2022-12-01T15:24:25.948Z,6.98
2022-12-01T15:27:03.328Z,6.97
2022-12-01T15:29:42.908Z,6.88
2022-12-01T15:32:15.577Z,6.85
2022-12-01T15:34:46.400Z,6.86
2022-12-01T15:37:24.699Z,6.76
2022-12-01T15:40:43.439Z,6.71
2022-12-01T15:43:03.425Z,6.59
2022-12-01T15:45:30.274Z,6.49
2022-12-01T15:47:56.903Z,6.22
2022-12-01T15:50:26.177Z,6.24
2022-12-01T15:52:52.934Z,6.29
2022-12-01T15:55:29.968Z,6.19
2022-12-01T15:57:58.700Z,6.15
2022-12-01T16:00:26.520Z,6.15
2022-12-01T16:02:58.360Z,6.11
2022-12-01T16:05:33.183Z,6.15
2022-12-01T16:08:21.415Z,6.02
2022-12-01T16:11:10.761Z,6.11
2022-12-01T16:13:55.367Z,6.03
2022-12-01T16:16:28.652Z,6.04
2022-12-01T16:19:11.575Z,5.99
2022-12-01T16:21:47.365Z,5.94
2022-12-01T16:24:24.820Z,5.90
2022-12-01T16:26:54.592Z,5.75
2022-12-01T16:29:25.887Z,5.77
2022-12-01T16:32:21.613Z,5.79
2022-12-01T16:34:47.712Z,5.83
2022-12-01T16:37:15.385Z,5.77
2022-12-01T16:39:42.331Z,5.92
2022-12-01T16:42:14.449Z,5.94
2022-12-01T16:44:42.723Z,5.92
2022-12-01T16:47:14.666Z,5.89
2022-12-01T16:49:41.579Z,5.78
2022-12-01T16:52:42.585Z,5.82
2022-12-01T16:54:55.019Z,5.81
2022-12-01T16:57:21.633Z,5.84
2022-12-01T16:59:48.279Z,5.82
2022-12-01T17:02:15.097Z,5.80
2022-12-01T17:04:41.973Z,5.76
2022-12-01T17:07:08.582Z,5.71
2022-12-01T17:09:35.688Z,5.72
2022-12-01T17:12:02.251Z,5.66
2022-12-01T17:14:29.285Z,5.64
2022-12-01T17:16:57.441Z,5.57
2022-12-01T17:19:24.240Z,5.62
2022-12-01T17:21:50.833Z,5.52
2022-12-01T17:24:19.184Z,5.54
2022-12-01T17:26:46.245Z,5.57
2022-12-01T17:29:12.905Z,5.55
2022-12-01T17:31:39.613Z,5.55
2022-12-01T17:34:07.736Z,5.51
2022-12-01T17:36:35.453Z,5.54
2022-12-01T17:39:02.809Z,5.45
2022-12-01T17:41:36.471Z,5.45
2022-12-01T17:44:05.500Z,5.54
2022-12-01T17:46:33.392Z,5.53
2022-12-01T17:49:01.764Z,5.56
2022-12-01T17:51:28.512Z,5.40
2022-12-01T17:53:55.431Z,5.43
2022-12-01T17:56:22.132Z,5.49
2022-12-01T17:58:50.429Z,5.43
2022-12-01T18:01:20.780Z,5.47
2022-12-01T18:03:50.740Z,5.44
2022-12-01T18:06:19.812Z,5.40
2022-12-01T18:08:47.133Z,5.32
2022-12-01T18:11:16.139Z,5.28
2022-12-01T18:13:47.876Z,5.34
2022-12-01T18:16:20.322Z,5.32
2022-12-01T18:18:47.520Z,5.30
2022-12-01T18:21:16.744Z,5.32
2022-12-01T18:23:52.745Z,5.24
2022-12-01T18:26:21.904Z,5.29
2022-12-01T18:29:02.955Z,5.17
2022-12-01T18:31:30.439Z,5.22
2022-12-01T18:33:59.154Z,5.27
2022-12-01T18:36:27.053Z,5.27
2022-12-01T18:38:54.670Z,5.37
2022-12-01T18:41:21.406Z,5.42
2022-12-01T18:43:48.347Z,5.34
2022-12-01T18:46:16.893Z,5.42
2022-12-01T18:48:45.844Z,5.30
2022-12-01T18:51:13.343Z,5.16
2022-12-01T18:53:40.291Z,5.17
2022-12-01T18:56:11.693Z,5.16
2022-12-01T18:58:39.499Z,5.18
2022-12-01T19:01:32.530Z,5.20
2022-12-01T19:04:00.403Z,5.29
2022-12-01T19:06:28.736Z,5.25
2022-12-01T19:09:00.260Z,5.20
2022-12-01T19:11:28.252Z,5.21
2022-12-01T19:13:58.289Z,5.20
2022-12-01T19:16:25.797Z,5.24
2022-12-01T19:18:53.315Z,5.27
2022-12-01T19:21:20.404Z,5.34
2022-12-01T19:23:47.812Z,5.27
2022-12-01T19:26:18.687Z,5.30
2022-12-01T19:28:46.097Z,5.32
2022-12-01T19:31:20.127Z,5.40
2022-12-01T19:33:47.344Z,5.39
2022-12-01T19:36:21.832Z,5.37
2022-12-01T19:38:49.102Z,5.33
2022-12-01T19:41:17.192Z,5.37
2022-12-01T19:43:44.074Z,5.31
2022-12-01T19:46:17.575Z,5.31
2022-12-01T19:48:45.565Z,5.31
2022-12-01T19:51:20.812Z,5.38
2022-12-01T19:53:47.830Z,5.39
2022-12-01T19:56:14.773Z,5.40
2022-12-01T19:58:41.850Z,5.35
2022-12-01T20:01:11.589Z,5.34
2022-12-01T20:03:40.574Z,5.42
2022-12-01T20:06:13.567Z,5.40
2022-12-01T20:08:40.939Z,5.32
2022-12-01T20:11:08.781Z,5.39
2022-12-01T20:13:39.115Z,5.41
2022-12-01T20:16:18.634Z,5.44
2022-12-01T20:18:45.901Z,5.40
2022-12-01T20:21:19.016Z,5.38
2022-12-01T20:23:48.281Z,5.39
2022-12-01T20:26:17.213Z,5.46
2022-12-01T20:28:45.688Z,5.52
2022-12-01T20:31:15.919Z,5.45
2022-12-01T20:33:42.841Z,5.40
2022-12-01T20:36:09.796Z,5.38
2022-12-01T20:38:37.350Z,5.42
2022-12-01T20:41:05.024Z,5.40
2022-12-01T20:43:32.889Z,5.35
2022-12-01T20:46:00.272Z,5.33
2022-12-01T20:48:27.044Z,5.39
2022-12-01T20:50:54.415Z,5.43
2022-12-01T20:53:21.784Z,5.45
2022-12-01T20:55:49.079Z,5.40
2022-12-01T20:58:15.758Z,5.37
2022-12-01T21:00:44.327Z,5.29
2022-12-01T21:03:11.871Z,5.33
2022-12-01T21:05:40.423Z,5.38
2022-12-01T21:08:10.788Z,5.34
2022-12-01T21:10:44.753Z,5.26
2022-12-01T21:13:39.167Z,5.33
2022-12-01T21:16:27.427Z,5.32
2022-12-01T21:19:00.234Z,5.35
2022-12-01T21:21:29.294Z,5.40
2022-12-01T21:24:07.934Z,5.33
2022-12-01T21:26:39.360Z,5.33
2022-12-01T21:29:18.671Z,5.35
2022-12-01T21:31:46.784Z,5.37
2022-12-01T21:34:18.791Z,5.35
2022-12-01T21:36:48.164Z,5.38
2022-12-01T21:39:18.434Z,5.35
2022-12-01T21:41:45.291Z,5.38
2022-12-01T21:44:20.368Z,5.30
2022-12-01T21:46:50.029Z,5.32
2022-12-01T21:49:22.483Z,5.30
2022-12-01T21:51:52.842Z,5.29
2022-12-01T21:54:21.639Z,5.32
2022-12-01T21:56:57.103Z,5.37
2022-12-01T21:59:24.556Z,5.32
2022-12-01T22:01:54.839Z,5.32
2022-12-01T22:04:25.337Z,5.27
2022-12-01T22:06:54.623Z,5.26
2022-12-01T22:09:31.457Z,5.27
2022-12-01T22:12:07.242Z,5.25
2022-12-01T22:14:35.687Z,5.24
2022-12-01T22:17:05.320Z,5.34
2022-12-01T22:19:33.253Z,5.37
2022-12-01T22:22:01.714Z,5.29
2022-12-01T22:24:35.345Z,5.26
2022-12-01T22:27:26.363Z,5.26
2022-12-01T22:30:17.151Z,5.36
2022-12-01T22:32:58.658Z,5.37
2022-12-01T22:35:44.818Z,5.26
2022-12-01T22:38:15.511Z,5.26
2022-12-01T22:40:48.329Z,5.32
2022-12-01T22:43:17.963Z,5.29
2022-12-01T22:46:00.126Z,5.27
2022-12-01T22:48:40.715Z,5.29
2022-12-01T22:51:13.551Z,5.25
2022-12-01T22:53:42.045Z,5.23
2022-12-01T22:56:32.476Z,5.22
2022-12-01T22:58:59.474Z,5.21
2022-12-01T23:01:27.696Z,5.18
2022-12-01T23:04:17.230Z,5.19
2022-12-01T23:06:57.282Z,5.17
2022-12-01T23:09:28.716Z,5.17
2022-12-01T23:12:00.639Z,5.24
2022-12-01T23:14:28.614Z,5.16
2022-12-01T23:17:07.277Z,5.27
2022-12-01T23:19:35.053Z,5.33
2022-12-01T23:22:02.014Z,5.32
2022-12-01T23:24:33.706Z,5.28
2022-12-01T23:27:00.917Z,5.27
2022-12-01T23:29:27.901Z,5.30
2022-12-01T23:31:55.347Z,5.13
2022-12-01T23:34:22.044Z,5.14
2022-12-01T23:36:50.155Z,5.21
2022-12-01T23:39:18.439Z,5.29
2022-12-01T23:41:51.194Z,5.24
2022-12-01T23:44:23.143Z,5.22
2022-12-01T23:46:53.601Z,5.24
2022-12-01T23:49:26.006Z,5.24
2022-12-01T23:51:55.610Z,5.20
2022-12-01T23:54:22.153Z,5.19
2022-12-01T23:56:52.462Z,5.21
2022-12-01T23:59:20.279Z,5.31
